.
WxDataArchive / Data Records for 2012-05-04
2012-05-03 May 2012 2012-05-05

Data Records for Friday, 04 May 2012

Time	Temp	Chill	HIndex	Humid	Dewpt	 Wind 	HiWind	WindDir	Rain 	Barom 
-----	----	-----	------	-----	-----	------	------	-------	-----	----- 
00:00	72.5	72.5	72.5	66	60.5	0	0	---	0.00	29.930 
00:05	72.3	72.3	72.3	67	60.7	0	0	---	0.00	29.930 
00:10	72.0	72.0	72.0	67	60.4	0	1	248	0.00	29.930 
00:15	71.8	71.8	71.8	68	60.7	0	0	---	0.00	29.940 
00:20	71.5	71.5	71.5	69	60.8	0	0	---	0.00	29.940 
00:25	71.3	71.3	71.3	70	61.0	0	0	---	0.00	29.940 
00:30	70.9	70.9	70.9	70	60.6	0	0	---	0.00	29.945 
00:35	70.8	70.8	70.8	71	60.9	0	1	248	0.00	29.945 
00:40	70.6	70.6	70.6	71	60.7	0	0	---	0.00	29.945 
00:45	70.6	70.6	70.6	70	60.3	0	1	248	0.00	29.945 
00:50	70.8	70.8	70.8	69	60.1	0	1	248	0.00	29.945 
00:55	70.9	70.9	70.9	69	60.2	0	1	248	0.00	29.945 
01:00	70.8	70.8	70.8	68	59.7	0	0	---	0.00	29.947 
01:05	70.6	70.6	70.6	69	59.9	0	0	---	0.00	29.947 
01:10	70.4	70.4	70.4	69	59.7	0	0	---	0.00	29.947 
01:15	70.3	70.3	70.3	69	59.6	0	0	---	0.00	29.945 
01:20	69.9	69.9	69.9	69	59.3	0	0	---	0.00	29.945 
01:25	69.8	69.8	69.8	69	59.2	0	1	248	0.00	29.945 
01:30	69.4	69.4	69.4	70	59.2	0	0	---	0.00	29.929 
01:35	69.3	69.3	69.3	70	59.1	0	0	---	0.00	29.929 
01:40	68.9	68.9	68.9	71	59.1	0	0	---	0.00	29.929 
01:45	68.6	68.6	68.6	72	59.2	0	0	---	0.00	29.921 
01:50	68.3	68.3	68.3	73	59.3	0	0	---	0.00	29.921 
01:55	68.1	68.1	68.1	73	59.1	0	2	248	0.00	29.921 
02:00	67.9	67.9	67.9	72	58.5	0	1	248	0.00	29.911 
02:05	67.9	67.9	67.9	71	58.1	0	2	248	0.00	29.911 
02:10	68.3	68.3	68.3	69	57.7	0	2	248	0.00	29.911 
02:15	68.6	68.6	68.6	68	57.6	0	2	248	0.00	29.912 
02:20	68.9	68.9	68.9	67	57.5	0	1	248	0.00	29.912 
02:25	68.9	68.9	68.9	66	57.1	0	1	248	0.00	29.912 
02:30	68.9	68.9	68.9	66	57.1	0	1	248	0.00	29.906 
02:35	68.9	68.9	68.9	65	56.6	0	1	248	0.00	29.906 
02:40	69.1	69.1	69.1	65	56.8	0	3	248	0.00	29.906 
02:45	69.1	69.1	69.1	65	56.8	0	3	248	0.00	29.906 
02:50	69.1	69.1	69.1	66	57.3	1	3	248	0.00	29.906 
02:55	69.3	69.3	69.3	66	57.4	0	2	248	0.00	29.906 
03:00	69.3	69.3	69.3	66	57.4	1	3	248	0.00	29.906 
03:05	69.3	69.3	69.3	67	57.9	0	3	248	0.00	29.906 
03:10	69.1	69.1	69.1	67	57.7	1	3	248	0.00	29.906 
03:15	69.1	69.1	69.1	68	58.1	1	3	248	0.00	29.903 
03:20	69.1	69.1	69.1	68	58.1	1	3	248	0.00	29.903 
03:25	68.9	68.9	68.9	69	58.3	0	2	248	0.00	29.903 
03:30	68.9	68.9	68.9	69	58.3	1	2	248	0.00	29.908 
03:35	68.9	68.9	68.9	69	58.3	1	4	248	0.00	29.908 
03:40	68.8	68.8	68.8	70	58.6	1	3	248	0.00	29.908 
03:45	68.8	68.8	68.8	70	58.6	0	1	248	0.00	29.899 
03:50	68.6	68.6	68.6	71	58.8	1	7	248	0.00	29.899 
03:55	68.6	68.6	68.6	71	58.8	0	3	248	0.00	29.899 
04:00	68.4	68.4	68.4	72	59.0	0	2	248	0.00	29.904 
04:05	68.4	68.4	68.4	72	59.0	0	2	248	0.00	29.904 
04:10	68.3	68.3	68.3	73	59.3	0	2	248	0.00	29.904 
04:15	68.1	68.1	68.1	73	59.1	0	1	248	0.00	29.903 
04:20	67.9	67.9	67.9	73	58.9	0	3	248	0.00	29.903 
04:25	67.8	67.8	67.8	74	59.2	0	2	248	0.00	29.903 
04:30	67.6	67.6	67.6	74	59.0	0	1	248	0.00	29.911 
04:35	67.6	67.6	67.6	75	59.4	0	1	248	0.00	29.911 
04:40	67.6	67.6	67.6	75	59.4	0	2	248	0.00	29.911 
04:45	67.4	67.4	67.4	75	59.2	0	1	248	0.00	29.923 
04:50	67.4	67.4	67.4	76	59.6	0	1	248	0.00	29.923 
04:55	67.3	67.3	67.3	76	59.5	0	1	248	0.00	29.923 
05:00	67.3	67.3	67.3	76	59.5	0	1	248	0.00	29.922 
05:05	67.1	67.1	67.1	77	59.6	0	1	248	0.00	29.922 
05:10	67.1	67.1	67.1	77	59.6	0	0	---	0.00	29.922 
05:15	66.9	66.9	66.9	77	59.4	0	0	---	0.00	29.919 
05:20	66.9	66.9	66.9	78	59.8	0	0	---	0.00	29.919 
05:25	66.8	66.8	66.8	78	59.7	0	0	---	0.00	29.919 
05:30	66.6	66.6	66.6	79	59.9	0	0	---	0.00	29.914 
05:35	66.4	66.4	66.4	79	59.7	0	0	---	0.00	29.914 
05:40	66.4	66.4	66.4	80	60.0	0	1	248	0.00	29.914 
05:45	66.4	66.4	66.4	80	60.0	0	0	---	0.00	29.908 
05:50	66.3	66.3	66.3	80	59.9	0	0	---	0.00	29.908 
05:55	66.1	66.1	66.1	81	60.1	0	0	---	0.00	29.908 
06:00	66.0	66.0	66.0	81	60.0	0	0	---	0.00	29.904 
06:05	65.8	65.8	65.8	81	59.8	0	0	---	0.00	29.904 
06:10	65.8	65.8	65.8	82	60.1	0	0	---	0.00	29.904 
06:15	65.6	65.6	65.6	82	59.9	0	0	---	0.00	29.905 
06:20	65.5	65.5	65.5	83	60.2	0	0	---	0.00	29.905 
06:25	65.5	65.5	65.5	83	60.2	0	0	---	0.00	29.905 
06:30	65.3	65.3	65.3	83	60.0	0	0	---	0.00	29.906 
06:35	65.2	65.2	65.2	83	59.9	0	0	---	0.00	29.906 
06:40	65.2	65.2	65.2	84	60.2	0	0	---	0.00	29.906 
06:45	65.0	65.0	65.0	84	60.0	0	1	248	0.00	29.913 
06:50	65.0	65.0	65.0	84	60.0	0	0	---	0.00	29.913 
06:55	65.0	65.0	65.0	84	60.0	0	1	248	0.00	29.913 
07:00	65.0	65.0	65.0	84	60.0	0	0	---	0.00	29.916 
07:05	65.0	65.0	65.0	84	60.0	0	0	---	0.00	29.916 
07:10	64.8	64.8	64.8	84	59.8	0	0	---	0.00	29.916 
07:15	64.8	64.8	64.8	85	60.2	0	1	248	0.00	29.930 
07:20	64.8	64.8	64.8	85	60.2	0	0	---	0.00	29.930 
07:25	64.7	64.7	64.7	85	60.1	0	1	248	0.00	29.930 
07:30	64.7	64.7	64.7	85	60.1	0	0	---	0.00	29.926 
07:35	64.8	64.8	64.8	85	60.2	0	1	248	0.00	29.926 
07:40	64.8	64.8	64.8	85	60.2	0	0	---	0.00	29.926 
07:45	64.8	64.8	64.8	85	60.2	0	1	248	0.00	29.916 
07:50	65.0	65.0	65.0	84	60.0	0	1	248	0.00	29.916 
07:55	65.2	65.2	65.2	84	60.2	0	1	248	0.00	29.916 
08:00	65.3	65.3	65.3	84	60.3	0	2	248	0.00	29.915 
08:05	65.6	65.6	65.6	83	60.3	0	2	248	0.00	29.915 
08:10	65.8	65.8	65.8	83	60.5	0	1	248	0.00	29.915 
08:15	66.1	66.1	66.1	83	60.8	0	1	248	0.00	29.916 
08:20	66.3	66.3	66.3	83	61.0	0	1	248	0.00	29.916 
08:25	66.4	66.4	66.4	83	61.1	0	1	248	0.00	29.916 
08:30	66.6	66.6	66.6	83	61.3	0	2	248	0.00	29.918 
08:35	67.1	67.1	67.1	83	61.8	0	1	248	0.00	29.918 
08:40	67.9	67.9	67.9	82	62.2	0	3	248	0.00	29.918 
08:45	68.4	68.4	68.4	81	62.3	1	3	248	0.00	29.910 
08:50	68.8	68.8	68.8	80	62.4	1	3	112	0.00	29.910 
08:55	69.1	69.1	69.1	80	62.7	0	2	112	0.00	29.910 
09:00	69.3	69.3	69.3	80	62.9	0	2	112	0.00	29.904 
09:05	69.3	69.3	69.3	81	63.2	0	2	112	0.00	29.904 
09:10	69.4	69.4	69.4	80	63.0	0	3	112	0.00	29.904 
09:15	69.8	69.8	69.8	80	63.3	0	2	112	0.00	29.915 
09:20	69.8	69.8	69.8	79	63.0	0	2	112	0.00	29.915 
09:25	70.3	70.3	70.3	80	63.8	0	2	112	0.00	29.915 
09:30	70.8	70.8	70.8	78	63.6	0	2	112	0.00	29.912 
09:35	71.1	71.1	71.1	77	63.5	0	2	248	0.00	29.912 
09:40	71.8	71.8	71.8	78	64.6	0	2	248	0.00	29.912 
09:45	72.3	72.3	72.3	76	64.3	1	4	90	0.00	29.914 
09:50	72.0	72.0	72.0	76	64.0	0	2	68	0.00	29.914 
09:55	71.6	71.6	71.6	77	64.0	0	2	68	0.00	29.914 
10:00	71.3	71.3	71.3	77	63.7	0	1	68	0.00	29.920 
10:05	71.3	71.3	71.3	78	64.1	0	1	68	0.00	29.920 
10:10	70.9	70.9	70.9	78	63.7	1	2	68	0.00	29.920 
10:15	70.9	70.9	70.9	78	63.7	1	2	68	0.00	29.934 
10:20	70.9	70.9	70.9	79	64.1	0	2	68	0.00	29.934 
10:25	70.6	70.6	70.6	79	63.8	1	3	270	0.00	29.934 
10:30	70.4	70.4	70.4	80	63.9	1	4	315	0.00	29.948 
10:35	70.4	70.4	70.4	80	63.9	1	3	315	0.00	29.948 
10:40	70.4	70.4	70.4	81	64.3	1	2	315	0.00	29.948 
10:45	70.4	70.4	70.4	81	64.3	1	3	315	0.00	29.950 
10:50	70.8	70.8	70.8	81	64.7	1	2	315	0.00	29.950 
10:55	71.5	71.5	71.5	80	65.0	0	2	315	0.00	29.950 
11:00	72.3	72.3	72.3	79	65.4	1	3	315	0.00	29.944 
11:05	72.8	72.8	72.8	77	65.2	1	5	292	0.00	29.944 
11:10	73.5	73.5	73.5	77	65.8	2	4	292	0.00	29.944 
11:15	73.7	73.7	73.7	74	64.9	2	5	270	0.00	29.945 
11:20	73.7	73.7	73.7	75	65.3	2	4	270	0.00	29.945 
11:25	73.7	73.7	73.7	74	64.9	1	3	270	0.00	29.945 
11:30	73.7	73.7	73.7	75	65.3	1	3	270	0.00	29.938 
11:35	74.2	74.2	74.2	76	66.1	1	2	270	0.00	29.938 
11:40	74.9	74.9	74.9	74	66.0	1	3	270	0.00	29.938 
11:45	75.4	75.4	76.8	73	66.1	1	4	270	0.00	29.933 
11:50	75.8	75.8	77.3	73	66.5	1	4	270	0.00	29.933 
11:55	76.0	76.0	77.5	72	66.3	2	4	270	0.00	29.933 
12:00	76.0	76.0	77.6	71	65.9	1	4	68	0.00	29.933 
12:05	75.4	75.4	76.9	72	65.7	2	4	270	0.00	29.933 
12:10	75.3	75.3	76.7	73	66.0	2	3	270	0.00	29.933 
12:15	75.3	75.3	76.7	73	66.0	1	4	270	0.00	29.933 
12:20	75.4	75.4	76.8	73	66.1	1	4	248	0.00	29.933 
12:25	75.8	75.8	77.3	73	66.5	2	7	248	0.00	29.933 
12:30	75.4	75.4	76.9	72	65.7	2	5	248	0.00	29.933 
12:35	75.8	75.8	77.3	73	66.5	1	3	270	0.00	29.933 
12:40	76.0	76.0	77.5	72	66.3	1	4	270	0.00	29.933 
12:45	76.7	76.7	78.3	73	67.4	1	3	270	0.00	29.925 
12:50	77.2	77.2	79.0	71	67.0	1	3	270	0.00	29.925 
12:55	77.4	77.4	79.3	70	66.8	1	4	270	0.00	29.925 
13:00	77.7	77.7	79.6	69	66.7	1	3	248	0.00	29.924 
13:05	77.9	77.9	79.8	67	66.0	2	5	248	0.00	29.924 
13:10	77.7	77.7	79.6	67	65.8	2	6	270	0.00	29.924 
13:15	78.1	78.1	80.2	70	67.5	1	4	270	0.00	29.918 
13:20	78.6	78.6	80.7	68	67.1	1	3	270	0.00	29.918 
13:25	79.2	79.2	81.5	67	67.3	1	3	270	0.00	29.918 
13:30	79.4	79.4	81.6	65	66.6	1	4	270	0.00	29.913 
13:35	79.2	79.2	81.3	65	66.4	2	5	270	0.00	29.913 
13:40	79.2	79.2	81.5	67	67.3	1	4	270	0.00	29.913 
13:45	79.4	79.4	81.6	65	66.6	2	4	292	0.00	29.907 
13:50	79.6	79.6	81.5	62	65.4	2	5	292	0.00	29.907 
13:55	79.6	79.6	81.8	65	66.8	2	4	292	0.00	29.907 
14:00	79.8	79.8	82.0	64	66.5	2	4	292	0.00	29.909 
14:05	79.6	79.6	81.4	61	64.9	2	5	292	0.00	29.909 
14:10	79.6	79.6	81.3	60	64.5	2	4	248	0.00	29.909 
14:15	79.6	79.6	81.4	61	64.9	2	6	248	0.00	29.899 
14:20	79.9	79.9	81.9	62	65.7	1	5	112	0.00	29.899 
14:25	79.9	79.9	81.7	60	64.7	2	5	270	0.00	29.899 
14:30	79.6	79.6	81.3	60	64.5	2	5	270	0.00	29.898 
14:35	79.6	79.6	81.3	60	64.5	2	6	270	0.00	29.898 
14:40	79.8	79.8	81.7	61	65.1	1	5	292	0.00	29.898 
14:45	79.9	79.9	81.6	59	64.3	2	5	270	0.00	29.887 
14:50	79.8	79.8	81.4	58	63.7	2	4	270	0.00	29.887 
14:55	79.4	79.4	81.1	60	64.3	2	5	270	0.00	29.887 
15:00	79.8	79.8	81.6	60	64.7	2	4	270	0.00	29.885 
15:05	80.3	80.3	82.1	59	64.6	2	5	292	0.00	29.885 
15:10	80.7	80.7	82.4	58	64.5	2	4	248	0.00	29.885 
15:15	80.7	80.7	82.4	58	64.5	2	4	248	0.00	29.881 
15:20	81.2	81.2	82.7	56	64.0	1	4	270	0.00	29.881 
15:25	81.2	81.2	82.7	56	64.0	2	5	270	0.00	29.881 
15:30	81.2	81.2	82.9	57	64.5	1	3	270	0.00	29.871 
15:35	81.2	81.2	83.0	58	65.0	2	4	270	0.00	29.871 
15:40	81.1	81.1	82.6	56	63.9	2	5	270	0.00	29.871 
15:45	80.9	80.9	82.4	56	63.7	1	3	270	0.00	29.868 
15:50	80.9	80.9	82.5	57	64.2	1	4	270	0.00	29.868 
15:55	81.1	81.1	82.8	57	64.4	1	3	248	0.00	29.868 
16:00	80.7	80.7	82.0	55	63.0	2	4	248	0.00	29.866 
16:05	80.5	80.5	81.9	56	63.3	2	4	315	0.00	29.866 
16:10	80.5	80.5	81.8	55	62.8	2	4	315	0.00	29.866 
16:15	81.1	81.1	82.3	54	62.9	2	4	270	0.00	29.855 
16:20	81.6	81.6	82.8	53	62.8	1	4	315	0.00	29.855 
16:25	82.0	82.0	83.1	52	62.6	1	4	248	0.00	29.855 
16:30	82.2	82.2	83.0	50	61.7	1	3	248	0.00	29.850 
16:35	82.4	82.4	83.5	52	63.0	1	3	248	0.00	29.850 
16:40	82.6	82.6	83.4	50	62.0	2	4	248	0.00	29.850 
16:45	82.4	82.4	83.2	50	61.9	1	4	248	0.00	29.842 
16:50	82.0	82.0	82.8	50	61.5	0	2	22	0.00	29.842 
16:55	81.8	81.8	82.7	51	61.9	1	4	270	0.00	29.842 
17:00	81.6	81.6	82.6	52	62.2	0	1	270	0.00	29.841 
17:05	81.2	81.2	81.8	49	60.2	1	3	315	0.00	29.841 
17:10	81.2	81.2	82.3	53	62.4	0	2	315	0.00	29.841 
17:15	81.4	81.4	82.4	52	62.1	0	1	315	0.00	29.843 
17:20	81.6	81.6	82.5	51	61.7	1	2	315	0.00	29.843 
17:25	81.2	81.2	82.1	51	61.3	1	2	315	0.00	29.843 
17:30	81.6	81.6	82.8	53	62.8	0	2	315	0.00	29.845 
17:35	81.6	81.6	82.3	50	61.1	1	4	315	0.00	29.845 
17:40	81.4	81.4	81.9	48	59.8	1	3	315	0.00	29.845 
17:45	81.4	81.4	82.1	50	60.9	0	2	315	0.00	29.853 
17:50	81.6	81.6	82.2	49	60.6	0	1	315	0.00	29.853 
17:55	82.2	82.2	82.8	49	61.1	0	2	315	0.00	29.853 
18:00	82.0	82.0	82.5	48	60.3	0	1	315	0.00	29.852 
18:05	81.6	81.6	82.3	50	61.1	0	2	315	0.00	29.852 
18:10	81.2	81.2	81.9	50	60.8	0	1	315	0.00	29.852 
18:15	81.2	81.2	81.9	50	60.8	0	1	315	0.00	29.855 
18:20	81.2	81.2	81.9	50	60.8	0	1	315	0.00	29.855 
18:25	81.4	81.4	82.0	49	60.4	1	3	315	0.00	29.855 
18:30	81.2	81.2	81.8	49	60.2	1	2	315	0.00	29.856 
18:35	80.9	80.9	81.6	50	60.5	0	2	315	0.00	29.856 
18:40	80.9	80.9	81.6	50	60.5	0	1	315	0.00	29.856 
18:45	80.7	80.7	81.6	51	60.9	0	1	315	0.00	29.855 
18:50	80.9	80.9	81.6	50	60.5	0	1	315	0.00	29.855 
18:55	80.9	80.9	81.6	50	60.5	0	2	315	0.00	29.855 
19:00	80.9	80.9	81.6	50	60.5	0	1	315	0.00	29.855 
19:05	80.7	80.7	81.4	50	60.3	0	0	---	0.00	29.855 
19:10	80.5	80.5	81.4	51	60.7	0	1	315	0.00	29.855 
19:15	80.1	80.1	81.0	51	60.3	0	2	315	0.00	29.856 
19:20	80.1	80.1	81.0	51	60.3	0	1	315	0.00	29.856 
19:25	79.9	79.9	80.9	52	60.7	0	1	315	0.00	29.856 
19:30	79.9	79.9	80.8	51	60.1	0	1	315	0.00	29.856 
19:35	79.8	79.8	80.9	53	61.1	0	1	315	0.00	29.856 
19:40	79.6	79.6	80.7	53	60.9	0	1	315	0.00	29.856 
19:45	79.6	79.6	80.8	54	61.5	0	0	---	0.00	29.857 
19:50	79.8	79.8	80.8	52	60.6	0	1	315	0.00	29.857 
19:55	79.8	79.8	80.9	53	61.1	0	0	---	0.00	29.857 
20:00	79.6	79.6	80.7	53	60.9	0	0	---	0.00	29.859 
20:05	79.4	79.4	80.5	53	60.8	0	0	---	0.00	29.859 
20:10	79.2	79.2	80.5	55	61.6	1	7	315	0.00	29.859 
20:15	78.1	78.1	79.9	63	64.5	3	7	90	0.00	29.869 
20:20	76.5	76.5	78.3	67	64.7	5	11	90	0.00	29.869 
20:25	75.6	75.6	77.4	68	64.3	3	10	90	0.00	29.869 
20:30	75.1	75.1	76.9	69	64.2	3	7	112	0.00	29.878 
20:35	74.7	74.7	74.7	69	63.8	3	6	90	0.00	29.878 
20:40	74.6	74.6	74.6	70	64.2	3	6	90	0.00	29.878 
20:45	74.4	74.4	74.4	70	64.0	2	4	112	0.00	29.877 
20:50	74.0	74.0	74.0	71	64.0	2	4	112	0.00	29.877 
20:55	73.9	73.9	73.9	72	64.3	2	5	112	0.00	29.877 
21:00	73.7	73.7	73.7	72	64.1	1	3	112	0.00	29.874 
21:05	73.3	73.3	73.3	73	64.1	0	1	112	0.00	29.874 
21:10	73.2	73.2	73.2	74	64.4	0	1	112	0.00	29.874 
21:15	72.8	72.8	72.8	74	64.0	0	1	112	0.00	29.878 
21:20	72.7	72.7	72.7	75	64.3	0	0	---	0.00	29.878 
21:25	72.3	72.3	72.3	76	64.3	0	0	---	0.00	29.878 
21:30	72.1	72.1	72.1	77	64.5	0	0	---	0.00	29.879 
21:35	72.0	72.0	72.0	77	64.4	0	1	112	0.00	29.879 
21:40	71.8	71.8	71.8	78	64.6	1	4	112	0.00	29.879 
21:45	71.6	71.6	71.6	78	64.4	1	3	112	0.00	29.884 
21:50	71.3	71.3	71.3	79	64.4	0	2	112	0.00	29.884 
21:55	71.1	71.1	71.1	79	64.2	0	1	112	0.00	29.884 
22:00	70.9	70.9	70.9	79	64.1	0	2	112	0.00	29.890 
22:05	70.8	70.8	70.8	80	64.3	0	0	---	0.00	29.890 
22:10	70.6	70.6	70.6	80	64.1	0	0	---	0.00	29.890 
22:15	70.4	70.4	70.4	80	63.9	0	0	---	0.00	29.894 
22:20	70.1	70.1	70.1	80	63.6	0	0	---	0.00	29.894 
22:25	69.9	69.9	69.9	81	63.8	0	0	---	0.00	29.894 
22:30	69.8	69.8	69.8	81	63.7	0	0	---	0.00	29.898 
22:35	69.6	69.6	69.6	82	63.9	0	0	---	0.00	29.898 
22:40	69.4	69.4	69.4	82	63.7	0	0	---	0.00	29.898 
22:45	69.1	69.1	69.1	83	63.7	0	0	---	0.00	29.902 
22:50	69.1	69.1	69.1	83	63.7	0	1	112	0.00	29.902 
22:55	69.1	69.1	69.1	84	64.1	0	0	---	0.00	29.902 
23:00	69.1	69.1	69.1	84	64.1	0	1	112	0.00	29.899 
23:05	69.1	69.1	69.1	83	63.7	0	3	112	0.00	29.899 
23:10	69.1	69.1	69.1	82	63.4	1	3	112	0.00	29.899 
23:15	69.1	69.1	69.1	82	63.4	1	4	112	0.00	29.897 
23:20	69.1	69.1	69.1	82	63.4	1	5	112	0.00	29.897 
23:25	69.1	69.1	69.1	82	63.4	0	2	112	0.00	29.897 
23:30	68.9	68.9	68.9	82	63.2	0	2	112	0.00	29.904 
23:35	68.8	68.8	68.8	82	63.1	0	1	112	0.00	29.904 
23:40	68.6	68.6	68.6	83	63.2	0	2	112	0.00	29.904 
23:45	68.4	68.4	68.4	83	63.0	0	1	112	0.00	29.903 
23:50	68.1	68.1	68.1	84	63.1	0	1	112	0.00	29.903 
23:55	67.9	67.9	67.9	84	62.9	0	1	112	0.00	29.903 

CoCoRaHS
IN-AL-39
A2 Web Hosting
Creative Commons License
GoDaddy
search engine by freefind advanced

loaded 2018-11-14 04:30:49 • last modified 2010-11-18 10:43:29
Privacy PolicyDisclaimer
• wx.awcolley.com is powered by PmWiki v.2002016 •
• all content (unless otherwise noted) © 2018 A W Colley